National Weather Service Raw Text Product

Displaying AFOS PIL: TAFOTM Received: 2018-07-12 08:11 UTC


837 
FTUS43 KDMX 120811 AAA
TAFOTM
TAF AMD
KOTM 120811Z 1208/1306 16008KT P6SM SKC
     FM121600 18008G14KT P6SM FEW040 FEW250
     FM130100 16008KT P6SM FEW250=